Time;durP1;ratioP1;P1;durP2;ratioP2;P2;SDS_P1;SDS_P2;PMS_P1;PMS_P2;Temp;Humidity;BMP_temperature;BMP_pressure;BME280_temperature;BME280_humidity;BME280_pressure;Samples;Min_cycle;Max_cycle;Signal;HPM_P1;HPM_P2
2022/12/02 00:00:56;;;;;;;37.38;19.30;;;5.20;93.50;;;;;;4955013;29;20720;-66
2022/12/02 00:03:25;;;;;;;32.72;18.77;;;5.20;93.30;;;;;;4955308;29;20580;-65
2022/12/02 00:05:55;;;;;;;31.25;20.23;;;5.10;93.20;;;;;;4955209;29;20197;-66
2022/12/02 00:08:23;;;;;;;27.92;18.40;;;5.10;93.20;;;;;;4954747;29;20214;-66
2022/12/02 00:10:52;;;;;;;29.77;18.27;;;5.10;93.30;;;;;;4956508;29;20204;-66
2022/12/02 00:13:23;;;;;;;34.70;20.60;;;5.10;93.50;;;;;;4952943;29;20206;-66
2022/12/02 00:15:53;;;;;;;26.80;17.85;;;5.10;93.50;;;;;;4956532;29;20205;-66
2022/12/02 00:18:24;;;;;;;31.48;18.73;;;5.20;93.50;;;;;;4955298;29;20193;-66
2022/12/02 00:20:51;;;;;;;29.52;20.27;;;5.10;93.40;;;;;;4956679;29;20217;-65
2022/12/02 00:23:19;;;;;;;31.02;18.13;;;5.10;93.50;;;;;;4955937;29;20273;-66
2022/12/02 00:25:47;;;;;;;28.08;18.25;;;5.10;93.60;;;;;;4955771;29;20653;-66
2022/12/02 00:28:21;;;;;;;27.75;17.83;;;5.10;93.50;;;;;;4955418;29;20218;-66
2022/12/02 00:30:49;;;;;;;30.77;16.60;;;5.10;93.60;;;;;;4956415;29;20193;-65
2022/12/02 00:33:17;;;;;;;35.17;18.70;;;5.10;93.80;;;;;;4955372;29;20218;-66
2022/12/02 00:35:46;;;;;;;29.48;18.40;;;5.10;93.70;;;;;;4955760;29;20648;-66
2022/12/02 00:38:14;;;;;;;30.95;18.45;;;5.00;93.60;;;;;;4955310;29;20182;-65
2022/12/02 00:40:41;;;;;;;28.85;17.13;;;5.00;93.70;;;;;;4956129;29;20194;-66
2022/12/02 00:48:37;;;;;;;27.00;18.85;;;5.00;93.80;;;;;;4955591;29;20193;-65
2022/12/02 00:51:06;;;;;;;33.40;19.73;;;5.00;93.80;;;;;;4955602;29;20200;-65
2022/12/02 00:53:33;;;;;;;29.73;18.40;;;5.00;93.90;;;;;;4955156;29;20660;-65
2022/12/02 00:56:02;;;;;;;29.02;18.48;;;5.00;93.90;;;;;;4955998;29;20190;-65
2022/12/02 00:58:29;;;;;;;27.85;16.83;;;5.00;94.00;;;;;;4954498;28;20276;-66
2022/12/02 01:00:56;;;;;;;29.85;19.73;;;5.10;94.10;;;;;;4955976;29;20193;-65
2022/12/02 01:03:23;;;;;;;33.25;20.25;;;5.10;94.10;;;;;;4955231;29;20261;-66
2022/12/02 01:05:50;;;;;;;28.83;18.10;;;5.10;94.40;;;;;;4955510;29;20280;-66
2022/12/02 01:08:21;;;;;;;29.90;20.05;;;5.10;94.10;;;;;;4954834;29;20501;-66
2022/12/02 01:10:48;;;;;;;33.55;20.23;;;5.10;94.10;;;;;;4955614;29;20230;-66
2022/12/02 01:13:15;;;;;;;33.20;18.67;;;5.10;94.10;;;;;;4954613;29;20218;-65
2022/12/02 01:15:43;;;;;;;34.05;18.48;;;5.10;93.80;;;;;;4955898;29;20202;-66
2022/12/02 01:18:10;;;;;;;30.42;19.73;;;5.10;93.90;;;;;;4954981;29;20186;-66
2022/12/02 01:20:37;;;;;;;28.95;17.80;;;5.10;93.90;;;;;;4954813;29;20644;-66
2022/12/02 01:23:04;;;;;;;34.63;19.08;;;5.10;93.90;;;;;;4954742;29;20197;-66
2022/12/02 01:25:35;;;;;;;28.83;19.08;;;5.00;94.10;;;;;;4955360;29;20198;-66
2022/12/02 01:28:02;;;;;;;31.38;18.60;;;5.10;94.20;;;;;;4954455;29;20182;-66
2022/12/02 01:30:31;;;;;;;30.48;19.05;;;5.10;94.10;;;;;;4955379;29;20260;-65
2022/12/02 01:32:58;;;;;;;31.52;17.80;;;5.10;94.20;;;;;;4953645;29;20645;-66
2022/12/02 01:35:29;;;;;;;28.42;17.13;;;5.10;94.10;;;;;;4955145;29;20595;-66
2022/12/02 01:37:58;;;;;;;25.20;16.48;;;5.10;94.00;;;;;;4954199;29;20582;-65
2022/12/02 01:40:28;;;;;;;28.35;16.77;;;5.10;94.00;;;;;;4954401;29;20696;-66
2022/12/02 01:42:57;;;;;;;31.17;18.70;;;5.10;94.10;;;;;;4954669;29;20221;-66
2022/12/02 01:45:24;;;;;;;30.02;19.58;;;5.10;94.10;;;;;;4954236;29;20241;-65
2022/12/02 01:47:51;;;;;;;27.70;18.25;;;5.10;94.10;;;;;;4954913;29;20194;-66
2022/12/02 01:50:19;;;;;;;28.15;17.83;;;5.10;93.90;;;;;;4953978;29;20213;-66
2022/12/02 01:52:47;;;;;;;32.53;18.98;;;5.10;94.00;;;;;;4954798;29;20194;-65
2022/12/02 01:55:24;;;;;;;32.08;17.70;;;5.10;94.00;;;;;;4954316;29;20489;-65
2022/12/02 01:57:52;;;;;;;29.00;18.70;;;5.10;93.90;;;;;;4955196;29;20228;-66
2022/12/02 02:00:21;;;;;;;30.65;18.50;;;5.10;93.80;;;;;;4954307;29;20193;-65
2022/12/02 02:02:48;;;;;;;26.38;19.60;;;5.10;93.70;;;;;;4954727;29;20255;-66
2022/12/02 02:05:19;;;;;;;29.30;15.85;;;5.10;93.50;;;;;;4953534;28;20217;-66
2022/12/02 02:07:48;;;;;;;31.13;19.77;;;5.10;93.80;;;;;;4954620;29;20539;-65
2022/12/02 02:10:16;;;;;;;29.50;18.55;;;5.10;93.90;;;;;;4953868;28;20197;-66
2022/12/02 02:12:43;;;;;;;31.65;18.17;;;5.10;93.90;;;;;;4954390;29;20210;-65
2022/12/02 02:15:12;;;;;;;32.38;19.85;;;5.10;93.90;;;;;;4953871;29;20221;-66
2022/12/02 02:17:45;;;;;;;27.05;17.65;;;5.10;93.80;;;;;;4954168;29;20201;-65
2022/12/02 02:20:17;;;;;;;33.67;19.73;;;5.10;93.80;;;;;;4954032;29;20181;-65
2022/12/02 02:22:50;;;;;;;31.48;19.33;;;5.10;93.90;;;;;;4952762;29;20189;-67
2022/12/02 02:25:19;;;;;;;31.15;18.08;;;5.10;93.70;;;;;;4954446;29;20194;-66
2022/12/02 02:27:51;;;;;;;26.55;17.30;;;5.10;93.70;;;;;;4953823;29;20241;-66
2022/12/02 02:30:18;;;;;;;29.63;17.65;;;5.00;93.70;;;;;;4952743;29;20190;-65
2022/12/02 02:32:46;;;;;;;28.67;18.38;;;5.10;93.80;;;;;;4954385;29;20209;-66
2022/12/02 02:35:13;;;;;;;31.13;19.65;;;5.10;93.90;;;;;;4953306;29;20257;-65
2022/12/02 02:37:40;;;;;;;30.90;19.10;;;5.10;93.90;;;;;;4954201;29;20221;-66
2022/12/02 02:40:11;;;;;;;27.45;18.45;;;5.10;93.90;;;;;;4953586;29;20202;-66
2022/12/02 02:42:39;;;;;;;28.75;18.30;;;5.00;93.60;;;;;;4954197;29;20666;-66
2022/12/02 02:45:10;;;;;;;32.70;18.85;;;4.90;93.70;;;;;;4953419;29;20194;-66
2022/12/02 02:47:38;;;;;;;36.05;20.45;;;4.90;93.80;;;;;;4954140;29;20590;-66
2022/12/02 02:50:06;;;;;;;33.13;19.08;;;4.90;93.80;;;;;;4952820;29;20333;-66
2022/12/02 02:52:35;;;;;;;33.08;19.73;;;4.90;93.80;;;;;;4953996;29;20201;-66
2022/12/02 02:55:03;;;;;;;34.50;19.80;;;4.90;93.90;;;;;;4953380;29;20276;-65
2022/12/02 02:57:30;;;;;;;32.65;18.67;;;4.90;94.00;;;;;;4953918;29;20237;-65
2022/12/02 02:59:59;;;;;;;36.05;19.73;;;4.90;94.00;;;;;;4953377;29;20232;-66
2022/12/02 03:02:26;;;;;;;35.25;17.95;;;4.90;93.80;;;;;;4954058;29;20189;-65
2022/12/02 03:04:54;;;;;;;31.40;19.30;;;4.90;93.80;;;;;;4953073;29;20209;-66
2022/12/02 03:07:21;;;;;;;29.45;19.45;;;4.80;94.10;;;;;;4953899;29;20302;-66
2022/12/02 03:09:53;;;;;;;30.70;18.23;;;4.80;94.20;;;;;;4953199;29;20248;-66
2022/12/02 03:12:20;;;;;;;30.63;17.98;;;4.90;94.20;;;;;;4953806;29;20288;-66
2022/12/02 03:14:48;;;;;;;37.33;19.77;;;4.80;94.10;;;;;;4952771;29;20308;-66
2022/12/02 03:17:17;;;;;;;30.33;19.00;;;4.80;94.10;;;;;;4954082;29;20524;-66
2022/12/02 03:19:46;;;;;;;32.25;19.20;;;4.80;94.10;;;;;;4952961;28;20190;-65
2022/12/02 03:22:13;;;;;;;37.15;20.05;;;4.70;94.20;;;;;;4957500;29;20300;-65
2022/12/02 03:24:41;;;;;;;33.15;20.83;;;4.70;94.30;;;;;;4957002;29;20198;-65
2022/12/02 03:27:09;;;;;;;33.30;19.38;;;4.70;94.30;;;;;;4957528;29;20241;-65
2022/12/02 03:29:37;;;;;;;28.90;20.00;;;4.70;94.20;;;;;;4957184;29;20205;-66
2022/12/02 03:32:05;;;;;;;31.25;19.15;;;4.70;94.30;;;;;;4957257;29;20190;-65
2022/12/02 03:34:33;;;;;;;27.35;18.65;;;4.70;94.40;;;;;;4956525;29;20764;-66
2022/12/02 03:37:01;;;;;;;36.45;18.02;;;4.70;94.50;;;;;;4957688;29;20197;-66
2022/12/02 03:39:28;;;;;;;28.88;18.60;;;4.70;94.60;;;;;;4956228;29;20193;-65
2022/12/02 03:41:55;;;;;;;32.40;18.77;;;4.70;94.50;;;;;;4957468;29;20723;-65
2022/12/02 03:44:25;;;;;;;28.98;18.63;;;4.70;94.40;;;;;;4956366;29;20218;-65
2022/12/02 03:46:53;;;;;;;35.78;19.08;;;4.70;94.60;;;;;;4957126;29;20245;-66
2022/12/02 03:49:20;;;;;;;38.80;21.35;;;4.70;94.60;;;;;;4956467;29;20245;-66
2022/12/02 03:51:49;;;;;;;32.35;17.88;;;4.70;94.60;;;;;;4956929;29;20596;-66
2022/12/02 03:54:19;;;;;;;38.00;19.30;;;4.70;94.60;;;;;;4956086;29;20253;-65
2022/12/02 03:56:46;;;;;;;32.88;22.83;;;4.70;94.60;;;;;;4956542;29;20189;-65
2022/12/02 03:59:20;;;;;;;34.63;19.98;;;4.80;94.70;;;;;;4956510;29;20590;-66
2022/12/02 04:01:47;;;;;;;36.88;19.02;;;4.80;94.60;;;;;;4957361;29;20681;-66
2022/12/02 04:04:14;;;;;;;34.20;20.02;;;4.80;94.60;;;;;;4956507;29;20676;-65
2022/12/02 04:06:41;;;;;;;32.38;19.55;;;4.80;94.60;;;;;;4957331;29;20599;-66
2022/12/02 04:09:10;;;;;;;35.53;20.65;;;4.80;94.60;;;;;;4956453;29;20198;-66
2022/12/02 04:11:37;;;;;;;32.65;22.65;;;4.90;94.60;;;;;;4956750;29;20237;-65
2022/12/02 04:14:09;;;;;;;32.50;21.73;;;4.90;94.50;;;;;;4955111;29;20210;-65
2022/12/02 04:16:38;;;;;;;34.53;19.77;;;4.90;94.30;;;;;;4956571;29;20649;-65
2022/12/02 04:19:05;;;;;;;36.00;21.40;;;4.90;94.30;;;;;;4956436;29;20591;-66
2022/12/02 04:21:32;;;;;;;34.97;18.13;;;4.90;94.30;;;;;;4957238;29;20197;-66
2022/12/02 04:23:59;;;;;;;32.55;20.08;;;4.90;94.40;;;;;;4956485;29;20269;-65
2022/12/02 04:26:28;;;;;;;36.42;21.50;;;4.90;94.40;;;;;;4956042;29;20194;-66
2022/12/02 04:28:54;;;;;;;34.28;18.10;;;4.90;94.40;;;;;;4957030;29;20225;-65
2022/12/02 04:31:21;;;;;;;30.83;19.13;;;4.90;94.40;;;;;;4955588;28;20237;-66
2022/12/02 04:33:49;;;;;;;36.35;21.00;;;4.90;94.30;;;;;;4955603;29;20252;-66
2022/12/02 04:36:16;;;;;;;34.58;19.60;;;4.90;94.40;;;;;;4956409;29;20202;-66
2022/12/02 04:38:43;;;;;;;31.95;18.65;;;4.90;94.50;;;;;;4956169;29;20205;-66
2022/12/02 04:41:10;;;;;;;33.08;19.35;;;4.90;94.40;;;;;;4956902;29;20237;-66
2022/12/02 04:43:39;;;;;;;30.88;20.10;;;4.80;94.40;;;;;;4955269;29;20193;-66
2022/12/02 04:46:06;;;;;;;31.27;19.88;;;4.80;94.50;;;;;;4956503;29;20229;-65
2022/12/02 04:48:33;;;;;;;35.03;21.00;;;4.80;94.40;;;;;;4955443;29;20237;-66
2022/12/02 04:51:00;;;;;;;30.70;18.58;;;4.80;94.50;;;;;;4956603;29;20222;-66
2022/12/02 04:53:27;;;;;;;32.65;20.35;;;4.90;94.50;;;;;;4955897;29;20185;-66
2022/12/02 04:55:54;;;;;;;36.17;20.70;;;4.90;94.50;;;;;;4955653;29;20229;-66
2022/12/02 04:58:21;;;;;;;28.13;17.55;;;4.80;94.50;;;;;;4955932;29;20193;-66
2022/12/02 05:00:53;;;;;;;29.17;18.75;;;4.80;94.70;;;;;;4955264;29;20197;-65
2022/12/02 05:03:21;;;;;;;30.25;18.83;;;4.80;94.70;;;;;;4956197;29;20241;-66
2022/12/02 05:05:48;;;;;;;35.17;20.60;;;4.80;94.70;;;;;;4955376;28;20218;-66
2022/12/02 05:08:15;;;;;;;27.23;19.48;;;4.80;94.60;;;;;;4956039;29;20248;-66
2022/12/02 05:10:42;;;;;;;35.05;19.65;;;4.80;94.60;;;;;;4956217;29;20252;-66
2022/12/02 05:13:09;;;;;;;34.33;20.10;;;4.80;94.50;;;;;;4955401;29;20194;-66
2022/12/02 05:15:36;;;;;;;32.33;19.42;;;4.80;94.60;;;;;;4955615;29;20217;-66
2022/12/02 05:18:05;;;;;;;33.22;20.60;;;4.80;94.60;;;;;;4954735;29;20230;-65
2022/12/02 05:20:32;;;;;;;30.63;18.73;;;4.80;94.50;;;;;;4955769;29;20194;-65
2022/12/02 05:22:59;;;;;;;33.40;19.85;;;4.90;94.70;;;;;;4954843;29;20653;-66
2022/12/02 05:25:26;;;;;;;31.60;19.13;;;4.80;94.70;;;;;;4954728;29;20182;-65
2022/12/02 05:27:54;;;;;;;36.15;21.98;;;4.90;94.80;;;;;;4953754;29;20201;-65
2022/12/02 05:30:21;;;;;;;34.20;20.70;;;4.80;94.60;;;;;;4955274;29;20272;-66
2022/12/02 05:32:48;;;;;;;33.17;19.80;;;4.80;94.60;;;;;;4955806;29;20229;-65
2022/12/02 05:35:18;;;;;;;34.05;20.15;;;4.80;94.60;;;;;;4954611;29;20222;-65
2022/12/02 05:37:45;;;;;;;28.88;18.20;;;4.80;94.70;;;;;;4955586;29;20671;-65
2022/12/02 05:40:16;;;;;;;27.63;18.92;;;4.70;94.70;;;;;;4955088;29;20201;-66
2022/12/02 05:42:43;;;;;;;28.83;18.13;;;4.70;95.30;;;;;;4936283;29;20186;-66
2022/12/02 05:45:16;;;;;;;36.42;18.83;;;4.70;95.00;;;;;;4936017;29;20324;-66
2022/12/02 05:47:50;;;;;;;34.70;19.38;;;4.70;95.00;;;;;;4936570;29;20195;-66
2022/12/02 05:50:19;;;;;;;36.13;20.55;;;4.70;95.00;;;;;;4936391;29;20245;-65
2022/12/02 05:52:48;;;;;;;34.60;19.05;;;4.70;95.00;;;;;;4936409;29;20681;-66
2022/12/02 05:55:18;;;;;;;36.00;20.10;;;4.70;95.00;;;;;;4942606;29;20696;-65
2022/12/02 05:57:48;;;;;;;33.58;18.80;;;4.60;95.20;;;;;;4955533;29;20201;-65
2022/12/02 06:00:19;;;;;;;30.45;18.85;;;4.70;95.30;;;;;;4954604;29;20194;-65
2022/12/02 06:02:48;;;;;;;34.80;21.20;;;4.70;95.20;;;;;;4955399;29;20201;-66
2022/12/02 06:05:19;;;;;;;32.33;19.38;;;4.80;95.30;;;;;;4953812;29;20569;-66
2022/12/02 06:07:48;;;;;;;36.33;20.15;;;4.70;95.00;;;;;;4954737;29;20183;-65
2022/12/02 06:10:26;;;;;;;36.35;19.73;;;4.80;95.00;;;;;;4953559;29;20182;-65
2022/12/02 06:12:56;;;;;;;36.47;20.90;;;4.80;95.00;;;;;;4946505;29;20688;-65
2022/12/02 06:15:23;;;;;;;35.03;19.88;;;4.80;95.00;;;;;;4954208;29;20245;-66
2022/12/02 06:17:51;;;;;;;36.97;21.10;;;4.80;94.90;;;;;;4954687;29;20205;-65
2022/12/02 06:20:28;;;;;;;35.38;20.65;;;4.80;94.80;;;;;;4954327;29;20186;-65
2022/12/02 06:22:55;;;;;;;37.15;23.33;;;4.80;94.70;;;;;;4954924;29;20324;-65
2022/12/02 06:25:25;;;;;;;35.70;22.13;;;4.80;94.90;;;;;;4952757;29;20272;-65
2022/12/02 06:27:56;;;;;;;36.25;20.80;;;4.80;95.00;;;;;;4953456;29;20281;-65
2022/12/02 06:30:23;;;;;;;34.20;21.27;;;4.80;95.00;;;;;;4953407;29;20194;-65
2022/12/02 06:32:54;;;;;;;35.50;20.67;;;4.80;94.90;;;;;;4953365;29;20194;-66
2022/12/02 06:35:24;;;;;;;38.45;22.17;;;4.80;94.90;;;;;;4954043;29;20296;-66
2022/12/02 06:37:55;;;;;;;36.97;20.10;;;4.80;94.90;;;;;;4954426;29;20716;-66
2022/12/02 06:40:25;;;;;;;38.10;21.25;;;4.80;94.90;;;;;;4954037;29;20240;-65
2022/12/02 06:42:52;;;;;;;35.40;21.75;;;4.70;94.80;;;;;;4952830;29;20189;-66
2022/12/02 06:45:25;;;;;;;36.80;22.17;;;4.70;94.90;;;;;;4954206;29;20240;-65
2022/12/02 06:48:04;;;;;;;33.60;20.73;;;4.70;95.00;;;;;;4948191;28;20181;-65
2022/12/02 06:50:38;;;;;;;36.75;19.33;;;4.80;95.10;;;;;;4950579;29;20193;-67
2022/12/02 06:53:31;;;;;;;36.15;18.25;;;4.80;95.10;;;;;;4953178;29;20297;-66
2022/12/02 06:56:04;;;;;;;40.75;21.70;;;4.80;95.20;;;;;;4952744;28;20213;-66
2022/12/02 06:58:42;;;;;;;36.00;19.92;;;4.80;95.20;;;;;;4956112;29;20209;-66
2022/12/02 07:01:41;;;;;;;36.40;19.52;;;4.80;94.90;;;;;;4957616;29;20232;-65
2022/12/02 07:04:34;;;;;;;42.42;22.27;;;4.80;94.80;;;;;;4956210;28;20596;-66
2022/12/02 07:07:15;;;;;;;37.53;20.85;;;4.70;95.00;;;;;;4940903;29;20190;-66
2022/12/02 07:09:45;;;;;;;37.83;24.35;;;4.70;95.10;;;;;;4950103;29;20233;-66
2022/12/02 07:12:16;;;;;;;33.17;21.00;;;4.70;95.30;;;;;;4952502;29;20261;-66
2022/12/02 07:14:49;;;;;;;35.83;23.30;;;4.70;95.30;;;;;;4955708;29;20323;-65
2022/12/02 07:17:23;;;;;;;30.63;20.25;;;4.70;95.10;;;;;;4955447;29;20192;-65
2022/12/02 07:20:00;;;;;;;38.58;22.38;;;4.70;95.10;;;;;;4958115;29;20603;-66
2022/12/02 07:22:33;;;;;;;34.53;20.15;;;4.70;95.00;;;;;;4958135;29;20201;-66
2022/12/02 07:25:24;;;;;;;39.90;23.77;;;4.70;95.10;;;;;;4957848;29;20229;-66
2022/12/02 07:27:51;;;;;;;38.80;24.08;;;4.70;95.20;;;;;;4957996;29;20204;-66
2022/12/02 07:30:23;;;;;;;36.63;20.85;;;4.80;95.20;;;;;;4957866;29;20190;-65
2022/12/02 07:32:50;;;;;;;42.97;20.27;;;4.80;95.20;;;;;;4957792;29;20221;-65
2022/12/02 07:35:18;;;;;;;36.65;20.15;;;4.80;95.20;;;;;;4957620;29;20249;-65
2022/12/02 07:37:47;;;;;;;40.80;20.75;;;4.90;95.20;;;;;;4957791;29;20248;-65
2022/12/02 07:40:15;;;;;;;38.08;22.77;;;4.90;95.30;;;;;;4958027;29;20256;-66
2022/12/02 07:42:46;;;;;;;41.13;22.38;;;4.90;95.20;;;;;;4957902;29;20198;-65
2022/12/02 07:45:15;;;;;;;38.75;21.40;;;5.00;95.20;;;;;;4957867;29;20194;-65
2022/12/02 07:47:42;;;;;;;43.50;24.13;;;5.00;95.20;;;;;;4957678;29;20218;-65
2022/12/02 07:50:11;;;;;;;43.92;23.45;;;5.00;95.30;;;;;;4957564;29;20189;-66
2022/12/02 07:52:38;;;;;;;41.95;23.25;;;5.00;95.30;;;;;;4957677;29;20260;-66
2022/12/02 07:55:08;;;;;;;39.30;21.40;;;5.00;95.40;;;;;;4957582;29;20272;-66
2022/12/02 07:57:35;;;;;;;33.20;20.67;;;5.10;95.30;;;;;;4957759;29;20198;-65
2022/12/02 08:00:02;;;;;;;35.28;19.35;;;5.10;95.40;;;;;;4957551;29;20198;-66
2022/12/02 08:02:30;;;;;;;32.50;19.80;;;5.10;95.30;;;;;;4957276;29;20200;-66
2022/12/02 08:04:57;;;;;;;38.85;21.48;;;5.10;95.20;;;;;;4957187;29;20268;-66
2022/12/02 08:07:24;;;;;;;36.53;21.60;;;5.10;95.10;;;;;;4957147;28;20201;-66
2022/12/02 08:09:51;;;;;;;38.50;21.90;;;5.10;95.00;;;;;;4957396;29;20193;-66
2022/12/02 08:12:19;;;;;;;38.95;21.80;;;5.20;94.90;;;;;;4956959;29;20221;-66
2022/12/02 08:14:51;;;;;;;40.42;24.27;;;5.20;95.00;;;;;;4957191;29;20205;-65
2022/12/02 08:17:18;;;;;;;38.38;21.27;;;5.20;94.90;;;;;;4956836;29;20610;-66
2022/12/02 08:19:45;;;;;;;34.10;22.00;;;5.20;94.80;;;;;;4957393;29;20194;-65
2022/12/02 08:22:12;;;;;;;37.33;20.38;;;5.20;94.70;;;;;;4957282;29;20676;-66
2022/12/02 08:24:39;;;;;;;33.80;19.83;;;5.20;94.60;;;;;;4957402;29;20559;-65
2022/12/02 08:27:06;;;;;;;38.83;20.70;;;5.20;94.70;;;;;;4955706;29;20221;-65
2022/12/02 08:29:35;;;;;;;34.78;21.25;;;5.20;94.80;;;;;;4955698;29;20255;-66
2022/12/02 08:32:06;;;;;;;39.10;20.05;;;5.20;94.90;;;;;;4956980;29;20189;-66
2022/12/02 08:34:35;;;;;;;54.13;31.55;;;5.30;94.80;;;;;;4957010;29;20685;-66
2022/12/02 08:37:02;;;;;;;41.30;23.48;;;5.20;94.50;;;;;;4957061;29;21029;-66
2022/12/02 08:39:29;;;;;;;42.08;24.17;;;5.20;94.60;;;;;;4957134;29;20193;-66
2022/12/02 08:41:56;;;;;;;34.85;21.00;;;5.20;94.70;;;;;;4957102;29;20326;-66
2022/12/02 08:44:23;;;;;;;43.60;22.08;;;5.20;94.70;;;;;;4956959;29;20194;-66
2022/12/02 08:46:52;;;;;;;33.85;20.73;;;5.30;94.70;;;;;;4956439;29;20197;-66
2022/12/02 08:49:19;;;;;;;37.45;22.50;;;5.40;94.60;;;;;;4956666;29;20208;-66
2022/12/02 08:51:46;;;;;;;38.65;21.42;;;5.40;94.50;;;;;;4956715;29;20205;-66
2022/12/02 08:54:14;;;;;;;43.97;23.17;;;5.40;94.20;;;;;;4956442;29;20198;-66
2022/12/02 08:56:41;;;;;;;41.17;22.58;;;5.50;94.30;;;;;;4956588;29;20331;-66
2022/12/02 08:59:13;;;;;;;40.20;21.67;;;5.50;94.40;;;;;;4956303;29;20252;-65
2022/12/02 09:01:40;;;;;;;37.25;20.67;;;5.50;94.00;;;;;;4956214;29;20201;-66
2022/12/02 09:04:09;;;;;;;37.03;21.13;;;5.60;94.20;;;;;;4955969;29;20221;-65
2022/12/02 09:06:36;;;;;;;44.05;22.98;;;5.60;94.10;;;;;;4956625;29;20198;-66
2022/12/02 09:09:04;;;;;;;41.33;20.83;;;5.70;94.00;;;;;;4956225;29;20206;-65
2022/12/02 09:11:31;;;;;;;36.15;21.38;;;5.70;93.90;;;;;;4956448;29;20198;-66
2022/12/02 09:13:59;;;;;;;39.22;22.38;;;5.80;93.80;;;;;;4952102;29;20596;-66
2022/12/02 09:16:34;;;;;;;38.75;21.10;;;5.80;93.80;;;;;;4953813;29;20221;-66
2022/12/02 09:19:08;;;;;;;35.13;21.13;;;5.80;93.40;;;;;;4953366;28;20193;-66
2022/12/02 09:21:38;;;;;;;36.38;21.45;;;5.80;93.20;;;;;;4954509;29;20564;-66
2022/12/02 09:24:13;;;;;;;40.75;21.60;;;5.80;93.00;;;;;;4954360;29;20289;-66
2022/12/02 09:26:41;;;;;;;32.95;19.50;;;5.80;92.90;;;;;;4954239;29;20248;-66
2022/12/02 09:29:08;;;;;;;39.78;19.52;;;5.80;93.00;;;;;;4954782;29;20544;-66
2022/12/02 09:31:37;;;;;;;34.65;21.33;;;5.70;92.70;;;;;;4953691;29;20193;-66
2022/12/02 09:34:10;;;;;;;42.03;23.23;;;5.70;92.60;;;;;;4954362;29;20193;-66
2022/12/02 09:36:37;;;;;;;31.05;19.77;;;5.70;92.60;;;;;;4953853;29;20225;-66
2022/12/02 09:39:05;;;;;;;47.58;22.80;;;5.60;92.90;;;;;;4953664;29;20206;-66
2022/12/02 09:41:41;;;;;;;39.22;21.02;;;5.60;93.00;;;;;;4953892;29;20204;-66
2022/12/02 09:44:11;;;;;;;36.00;20.75;;;5.70;93.30;;;;;;4954017;29;20284;-66
2022/12/02 09:46:43;;;;;;;34.65;19.48;;;5.70;93.40;;;;;;4953608;29;20201;-66
2022/12/02 09:49:12;;;;;;;32.42;18.90;;;5.70;93.20;;;;;;4954079;29;20194;-66
2022/12/02 09:51:40;;;;;;;31.92;19.58;;;5.80;93.00;;;;;;4953939;29;20229;-66
2022/12/02 09:54:15;;;;;;;32.90;20.83;;;5.80;92.80;;;;;;4953627;29;20676;-66
2022/12/02 09:56:42;;;;;;;33.85;19.85;;;5.80;92.70;;;;;;4953110;29;20224;-66
2022/12/02 09:59:16;;;;;;;32.17;19.50;;;5.80;92.80;;;;;;4953769;29;20237;-66
2022/12/02 10:01:48;;;;;;;38.42;20.05;;;5.80;92.70;;;;;;4953697;29;20212;-66
2022/12/02 10:04:19;;;;;;;32.65;18.92;;;5.80;92.80;;;;;;4953805;29;20238;-66
2022/12/02 10:06:50;;;;;;;34.22;19.50;;;5.80;92.90;;;;;;4953950;29;20194;-66
2022/12/02 10:09:33;;;;;;;38.42;21.33;;;5.90;92.80;;;;;;4953570;29;20210;-66
2022/12/02 10:12:03;;;;;;;29.80;18.58;;;5.80;92.20;;;;;;4953525;29;20198;-66
2022/12/02 10:14:39;;;;;;;37.83;19.58;;;5.80;92.20;;;;;;4953605;29;20306;-66
2022/12/02 10:17:16;;;;;;;37.20;19.65;;;5.80;92.40;;;;;;4954160;29;20225;-66
2022/12/02 10:19:46;;;;;;;30.10;19.10;;;5.90;92.50;;;;;;4954192;29;20201;-66
2022/12/02 10:22:16;;;;;;;36.63;21.90;;;5.90;92.40;;;;;;4953689;29;20197;-66
2022/12/02 10:24:47;;;;;;;33.30;20.55;;;5.90;92.10;;;;;;4953825;29;20241;-66
2022/12/02 10:27:25;;;;;;;35.85;19.05;;;6.00;92.20;;;;;;4953392;29;20194;-66
2022/12/02 10:30:15;;;;;;;31.42;19.25;;;6.00;92.40;;;;;;4952187;28;20272;-65
2022/12/02 10:32:58;;;;;;;32.10;18.63;;;6.10;92.30;;;;;;4953909;29;20193;-66
2022/12/02 10:35:27;;;;;;;30.70;17.55;;;6.10;92.20;;;;;;4953283;29;20198;-66
2022/12/02 10:37:55;;;;;;;25.65;17.80;;;6.10;91.80;;;;;;4953204;29;20205;-66
2022/12/02 10:40:34;;;;;;;30.33;17.13;;;6.20;91.20;;;;;;4953002;29;20217;-66
2022/12/02 10:43:10;;;;;;;34.85;19.48;;;6.10;90.50;;;;;;4953345;29;20198;-65
2022/12/02 10:45:39;;;;;;;30.08;18.98;;;6.10;90.80;;;;;;4953288;29;20200;-66
2022/12/02 10:48:19;;;;;;;31.80;18.60;;;6.10;90.50;;;;;;4943350;28;20193;-66
2022/12/02 10:50:49;;;;;;;32.28;17.10;;;6.10;91.00;;;;;;4933979;29;20198;-65
2022/12/02 10:53:28;;;;;;;31.52;18.63;;;6.20;91.00;;;;;;4933358;29;20194;-65
2022/12/02 10:56:00;;;;;;;26.65;15.55;;;6.20;90.80;;;;;;4933932;29;20213;-66
2022/12/02 10:58:31;;;;;;;30.58;20.60;;;6.30;90.50;;;;;;4963386;28;20636;-66
2022/12/02 11:01:01;;;;;;;27.50;16.70;;;6.20;90.10;;;;;;4972201;28;20656;-66
2022/12/02 11:03:28;;;;;;;31.40;17.83;;;6.20;90.00;;;;;;4971159;28;20189;-66
2022/12/02 11:05:59;;;;;;;35.53;21.73;;;6.20;90.20;;;;;;4971967;28;20212;-66
2022/12/02 11:08:35;;;;;;;36.63;21.92;;;6.20;90.20;;;;;;4972416;28;20197;-66
2022/12/02 11:11:14;;;;;;;35.85;20.27;;;6.20;88.80;;;;;;4972016;28;20195;-66
2022/12/02 11:13:57;;;;;;;29.25;17.55;;;6.10;89.90;;;;;;4972361;28;20223;-66
2022/12/02 11:16:59;;;;;;;28.33;18.30;;;6.10;90.00;;;;;;4971338;28;20296;-66
2022/12/02 11:19:44;;;;;;;34.65;19.33;;;6.10;90.00;;;;;;4961433;28;20239;-66
2022/12/02 11:22:48;;;;;;;36.42;19.58;;;6.10;89.40;;;;;;4973949;28;20192;-66
2022/12/02 11:26:07;;;;;;;29.45;17.48;;;6.10;89.80;;;;;;4973990;28;20197;-66
2022/12/02 11:29:16;;;;;;;32.25;18.15;;;6.10;90.30;;;;;;4973802;28;20204;-66
2022/12/02 11:32:00;;;;;;;29.30;16.98;;;6.10;90.10;;;;;;4973822;28;20200;-66
2022/12/02 11:34:41;;;;;;;28.70;17.27;;;6.10;90.20;;;;;;4973722;28;20252;-66
2022/12/02 11:37:47;;;;;;;26.60;15.82;;;6.10;89.30;;;;;;4973776;28;20224;-66
2022/12/02 11:40:57;;;;;;;23.55;15.85;;;6.10;89.60;;;;;;4973759;28;20193;-66
2022/12/02 11:43:50;;;;;;;27.45;15.20;;;6.10;87.10;;;;;;4976830;28;20197;-66
2022/12/02 11:46:21;;;;;;;25.23;17.38;;;6.10;88.90;;;;;;4957681;28;20289;-66
2022/12/02 11:48:52;;;;;;;24.10;14.90;;;6.10;87.80;;;;;;4957730;29;20186;-65
2022/12/02 11:51:32;;;;;;;24.38;14.50;;;6.00;87.90;;;;;;4957910;29;20190;-66
2022/12/02 11:53:59;;;;;;;23.52;13.70;;;6.00;87.70;;;;;;4957984;29;20244;-66
2022/12/02 11:56:31;;;;;;;25.42;14.88;;;6.00;87.10;;;;;;4957849;29;20221;-65
2022/12/02 11:58:58;;;;;;;21.77;15.35;;;6.00;86.20;;;;;;4957326;29;20198;-66
2022/12/02 12:01:27;;;;;;;24.83;15.65;;;5.90;85.50;;;;;;4957683;29;20209;-66
2022/12/02 12:03:54;;;;;;;20.60;13.40;;;5.90;85.60;;;;;;4957468;29;20249;-65
2022/12/02 12:06:23;;;;;;;24.70;14.93;;;5.90;86.20;;;;;;4957002;29;20542;-65
2022/12/02 12:08:52;;;;;;;19.63;13.25;;;5.90;86.70;;;;;;4956866;29;20657;-65
2022/12/02 12:11:23;;;;;;;26.17;14.98;;;5.90;86.40;;;;;;4957214;29;20641;-66
2022/12/02 12:14:05;;;;;;;23.00;14.15;;;5.90;87.20;;;;;;4957440;29;20200;-66
2022/12/02 12:16:35;;;;;;;22.45;14.27;;;5.90;86.70;;;;;;4957054;29;20684;-65
2022/12/02 12:19:21;;;;;;;21.05;12.27;;;5.90;86.80;;;;;;4957563;29;20202;-66
2022/12/02 12:21:51;;;;;;;21.98;13.43;;;5.80;87.50;;;;;;4956909;29;20189;-66
2022/12/02 12:24:32;;;;;;;19.40;12.13;;;5.70;87.40;;;;;;4957376;29;20629;-65
2022/12/02 12:27:31;;;;;;;22.20;13.45;;;5.70;88.60;;;;;;4956990;29;20716;-66
2022/12/02 12:29:58;;;;;;;22.83;13.98;;;5.80;88.70;;;;;;4956577;29;20190;-65
2022/12/02 12:32:26;;;;;;;23.25;15.60;;;5.90;88.60;;;;;;4957224;29;20202;-66
2022/12/02 12:34:54;;;;;;;23.13;16.25;;;5.90;89.30;;;;;;4956529;29;20186;-66
2022/12/02 12:37:21;;;;;;;25.13;14.73;;;6.00;90.10;;;;;;4956272;29;20600;-65
2022/12/02 12:39:48;;;;;;;20.08;13.20;;;6.10;90.30;;;;;;4955387;29;20652;-66
2022/12/02 12:42:15;;;;;;;24.73;14.63;;;6.20;89.80;;;;;;4955689;29;20193;-66
2022/12/02 12:44:42;;;;;;;23.38;15.38;;;6.20;89.10;;;;;;4956885;29;20201;-66
2022/12/02 12:47:09;;;;;;;23.15;13.05;;;6.20;89.20;;;;;;4956438;29;20244;-66
2022/12/02 12:49:38;;;;;;;21.42;12.40;;;6.20;88.80;;;;;;4956513;29;20253;-65
2022/12/02 12:52:06;;;;;;;20.42;14.15;;;6.20;88.90;;;;;;4956237;29;20735;-65
2022/12/02 12:54:39;;;;;;;20.42;13.30;;;6.20;87.60;;;;;;4955862;28;20220;-66
2022/12/02 12:57:07;;;;;;;20.40;13.23;;;6.20;87.90;;;;;;4956118;29;20288;-66
2022/12/02 12:59:39;;;;;;;19.70;12.75;;;6.20;87.30;;;;;;4955804;29;20269;-66